Southwick, Idaho
Current Conditions -  °F | °C
As of 4:53 AM on Friday 24 Oct 2014 (Local Time) from KPUW Reporting Station
Clear Clear  
Wind Chill: 42°   Ceiling: Unl
Heat Index: 44°   Visibility: 10mi
Dew Point: 39°   Wind: 5mph
Humidity: 82%   Direction: 90°E
Pressure: 30.08"   Gusts: NA
Location:  46.6455°N, 116.545°W
Report Text: KPUW 241153Z AUTO 09004KT 10SM CLR 07/04 A3008 RMK AO2 SLP192 70023 T00670039 10089 20061 51004
Loading
Personal Weather Stations






























Interactive Weather Map
Tropical Storm Tracking
New forecast layout! Learn more

10-Day Weather Forecast

Advertisements
Track Severe Weather on mobile